createdAt,value
2023-02-25T00:02:20.882Z,14.97
2023-02-25T00:04:49.169Z,15.01
2023-02-25T00:07:37.136Z,15.10
2023-02-25T00:10:11.790Z,15.13
2023-02-25T00:12:40.386Z,15.15
2023-02-25T00:15:09.245Z,15.13
2023-02-25T00:17:40.095Z,15.12
2023-02-25T00:20:13.958Z,15.07
2023-02-25T00:22:46.834Z,15.02
2023-02-25T05:39:21.204Z,13.80
2023-02-25T05:41:51.948Z,14.87
2023-02-25T05:44:20.607Z,14.93
2023-02-25T05:46:50.504Z,14.93
2023-02-25T05:49:20.166Z,14.92
2023-02-25T05:51:51.136Z,14.90
2023-02-25T05:54:20.841Z,14.89
2023-02-25T05:56:59.991Z,14.92
2023-02-25T05:59:30.676Z,14.99
2023-02-25T06:01:59.921Z,15.05
2023-02-25T06:04:49.542Z,15.08
2023-02-25T06:07:24.975Z,15.06
2023-02-25T06:10:01.895Z,15.04
2023-02-25T06:12:42.001Z,15.03
2023-02-25T06:15:14.792Z,15.02
2023-02-25T06:17:44.221Z,15.04
2023-02-25T06:20:16.686Z,15.10
2023-02-25T06:22:48.025Z,15.20
2023-02-25T06:25:17.171Z,15.28
2023-02-25T06:27:57.309Z,15.30
2023-02-25T06:30:29.669Z,15.33
2023-02-25T06:33:02.730Z,15.38
2023-02-25T06:35:38.779Z,15.44
2023-02-25T06:38:10.018Z,15.51
2023-02-25T06:40:41.055Z,15.58
2023-02-25T06:43:12.352Z,15.65
2023-02-25T06:45:43.082Z,15.75
2023-02-25T06:48:13.255Z,15.85
2023-02-25T06:50:46.185Z,15.88
2023-02-25T06:53:18.647Z,15.91
2023-02-25T06:55:47.139Z,15.91
2023-02-25T06:58:19.742Z,15.89
2023-02-25T07:00:51.421Z,15.89
2023-02-25T07:03:20.037Z,15.86
2023-02-25T07:05:50.025Z,15.84
2023-02-25T07:08:24.808Z,15.88
2023-02-25T07:10:55.527Z,15.93
2023-02-25T07:13:25.795Z,15.97
2023-02-25T07:15:56.747Z,15.96
2023-02-25T07:18:26.270Z,15.97
2023-02-25T07:20:58.793Z,16.02
2023-02-25T07:23:29.666Z,16.06
2023-02-25T07:25:57.997Z,16.08
2023-02-25T07:28:28.724Z,16.11
2023-02-25T07:31:00.481Z,16.13
2023-02-25T07:33:33.309Z,16.20
2023-02-25T07:43:41.665Z,16.73
2023-02-25T07:46:13.243Z,16.76
2023-02-25T07:48:49.025Z,16.78
2023-02-25T07:51:22.205Z,16.78
2023-02-25T07:53:51.925Z,16.76
2023-02-25T07:56:26.916Z,16.79
2023-02-25T07:58:55.551Z,16.82
2023-02-25T08:01:31.759Z,16.86
2023-02-25T08:04:04.303Z,16.90
2023-02-25T08:06:37.773Z,16.97
2023-02-25T08:09:12.789Z,17.10
2023-02-25T08:11:45.923Z,17.24
2023-02-25T08:14:14.025Z,17.30
2023-02-25T08:16:42.528Z,17.35
2023-02-25T08:19:13.838Z,17.41
2023-02-25T08:21:43.080Z,17.47
2023-02-25T08:24:14.518Z,17.56
2023-02-25T08:26:42.597Z,17.64
2023-02-25T08:29:10.793Z,17.69
2023-02-25T08:31:39.429Z,17.70
2023-02-25T08:34:07.803Z,17.69
2023-02-25T08:36:37.456Z,17.72
2023-02-25T08:39:06.363Z,17.74
2023-02-25T08:41:34.950Z,17.81
2023-02-25T08:44:03.791Z,17.89
2023-02-25T08:46:38.745Z,17.93
2023-02-25T08:49:08.331Z,17.94
2023-02-25T08:51:57.765Z,17.96
2023-02-25T08:54:28.263Z,18.13
2023-02-25T08:56:57.707Z,18.27
2023-02-25T08:59:25.866Z,18.39
2023-02-25T09:01:54.424Z,18.53
2023-02-25T09:04:23.913Z,18.63
2023-02-25T09:06:54.275Z,18.73
2023-02-25T09:09:22.883Z,18.78
2023-02-25T09:11:51.334Z,18.72
2023-02-25T09:14:22.224Z,18.70
2023-02-25T09:16:51.173Z,18.75
2023-02-25T09:19:20.968Z,18.78
2023-02-25T09:21:50.443Z,18.86
2023-02-25T09:24:19.898Z,18.95
2023-02-25T09:26:48.162Z,18.97
2023-02-25T09:29:17.096Z,18.97
2023-02-25T09:31:45.721Z,19.04
2023-02-25T09:34:16.599Z,19.11
2023-02-25T09:36:44.867Z,19.17
2023-02-25T09:39:13.490Z,19.21
2023-02-25T09:41:56.114Z,19.22
2023-02-25T09:44:32.763Z,19.21
2023-02-25T09:47:27.430Z,19.14
2023-02-25T09:50:01.031Z,19.14
2023-02-25T09:52:38.960Z,19.22
2023-02-25T09:55:15.471Z,19.34
2023-02-25T09:57:43.712Z,19.41
2023-02-25T10:00:19.060Z,19.42
2023-02-25T10:03:12.180Z,19.43
2023-02-25T10:05:50.697Z,19.51
2023-02-25T10:08:27.285Z,19.55
2023-02-25T10:11:10.277Z,19.62
2023-02-25T10:14:09.145Z,19.69
2023-02-25T10:17:10.356Z,19.74
2023-02-25T10:20:19.524Z,19.83
2023-02-25T10:23:24.722Z,19.92
2023-02-25T10:26:11.881Z,19.93
2023-02-25T10:28:41.055Z,19.92
2023-02-25T10:31:13.941Z,19.91
2023-02-25T10:33:43.345Z,19.92
2023-02-25T10:36:32.235Z,19.96
2023-02-25T10:39:00.522Z,20.07
2023-02-25T10:41:28.871Z,20.16
2023-02-25T10:43:57.133Z,20.20
2023-02-25T10:46:37.230Z,20.20
2023-02-25T10:49:16.623Z,20.21
2023-02-25T10:52:03.895Z,20.24
2023-02-25T10:54:48.936Z,20.30
2023-02-25T10:57:28.567Z,20.35
2023-02-25T11:00:01.932Z,20.37
2023-02-25T11:02:31.593Z,20.35
2023-02-25T11:04:59.920Z,20.34
2023-02-25T11:07:33.086Z,20.33
2023-02-25T11:10:16.190Z,20.32
2023-02-25T11:12:50.005Z,20.34
2023-02-25T11:15:43.173Z,20.38
2023-02-25T11:18:12.289Z,20.45
2023-02-25T11:20:41.749Z,20.45
2023-02-25T11:23:18.081Z,20.38
2023-02-25T11:25:46.439Z,20.37
2023-02-25T11:28:28.239Z,20.39
2023-02-25T11:31:16.917Z,20.41
2023-02-25T11:34:06.933Z,20.47
2023-02-25T11:36:38.460Z,20.52
2023-02-25T11:39:18.516Z,20.56
2023-02-25T11:41:52.172Z,20.60
2023-02-25T11:44:28.189Z,20.61
2023-02-25T11:47:09.219Z,20.58
2023-02-25T11:49:42.819Z,20.54
2023-02-25T11:52:30.777Z,20.57
2023-02-25T11:55:12.875Z,20.63
2023-02-25T11:57:43.986Z,20.65
2023-02-25T12:00:21.666Z,20.66
2023-02-25T12:02:57.172Z,20.65
2023-02-25T12:05:25.846Z,20.64
2023-02-25T12:08:21.439Z,20.58
2023-02-25T12:11:16.272Z,20.51
2023-02-25T12:14:21.709Z,20.45
2023-02-25T12:17:27.635Z,20.38
2023-02-25T12:20:18.664Z,20.30
2023-02-25T12:23:05.660Z,20.15
2023-02-25T12:26:07.211Z,20.05
2023-02-25T12:29:05.308Z,20.00
2023-02-25T12:31:46.382Z,19.93
2023-02-25T12:34:51.816Z,19.80
2023-02-25T12:37:33.382Z,19.73
2023-02-25T12:40:40.239Z,19.73
2023-02-25T12:43:25.058Z,19.74
2023-02-25T12:46:08.608Z,19.76
2023-02-25T12:48:49.158Z,19.76
2023-02-25T12:51:37.403Z,19.83
2023-02-25T12:54:28.952Z,19.86
2023-02-25T12:57:08.808Z,19.87
2023-02-25T12:59:40.641Z,19.84
2023-02-25T13:02:21.837Z,19.85
2023-02-25T13:05:05.701Z,19.87
2023-02-25T13:07:43.470Z,19.88
2023-02-25T13:10:35.826Z,19.88
2023-02-25T13:13:22.993Z,19.90
2023-02-25T13:15:57.568Z,19.90
2023-02-25T13:18:48.689Z,19.89
2023-02-25T13:21:53.405Z,19.95
2023-02-25T13:24:29.464Z,19.98
2023-02-25T13:27:09.921Z,20.00
2023-02-25T13:29:56.959Z,20.04
2023-02-25T13:32:26.730Z,20.03
2023-02-25T13:35:19.216Z,20.01
2023-02-25T13:38:13.725Z,19.95
2023-02-25T13:40:54.509Z,19.93
2023-02-25T13:43:47.643Z,19.89
2023-02-25T13:46:28.284Z,19.83
2023-02-25T13:49:11.436Z,19.83
2023-02-25T13:52:18.876Z,19.83
2023-02-25T13:54:56.212Z,19.77
2023-02-25T13:57:27.349Z,19.71
2023-02-25T14:00:09.441Z,19.65
2023-02-25T14:02:56.109Z,19.59
2023-02-25T14:05:30.642Z,19.58
2023-02-25T14:08:24.507Z,19.62
2023-02-25T14:11:31.346Z,19.68
2023-02-25T14:14:18.324Z,19.73
2023-02-25T14:16:53.382Z,19.74
2023-02-25T14:19:38.116Z,19.69
2023-02-25T14:22:30.184Z,19.67
2023-02-25T14:25:14.488Z,19.62
2023-02-25T14:27:52.049Z,19.56
2023-02-25T14:30:23.053Z,19.50
2023-02-25T14:33:31.774Z,19.46
2023-02-25T14:36:26.930Z,19.43
2023-02-25T14:39:18.252Z,19.42
2023-02-25T14:42:02.225Z,19.45
2023-02-25T14:44:34.444Z,19.47
2023-02-25T14:47:18.822Z,19.47
2023-02-25T14:50:18.632Z,19.49
2023-02-25T14:53:05.605Z,19.48
2023-02-25T14:55:46.805Z,19.43
2023-02-25T14:58:51.207Z,19.42
2023-02-25T15:01:31.661Z,19.39
2023-02-25T15:04:12.389Z,19.37
2023-02-25T15:06:59.013Z,19.25
2023-02-25T15:09:47.337Z,19.19
2023-02-25T15:12:18.619Z,19.14
2023-02-25T15:15:15.949Z,19.07
2023-02-25T15:18:01.127Z,19.08
2023-02-25T15:20:40.554Z,19.13
2023-02-25T15:23:13.806Z,19.14
2023-02-25T15:26:08.010Z,19.11
2023-02-25T15:28:36.954Z,19.09
2023-02-25T15:31:08.840Z,19.07
2023-02-25T15:33:40.261Z,19.03
2023-02-25T15:36:14.475Z,19.00
2023-02-25T15:38:50.569Z,18.96
2023-02-25T15:41:41.602Z,18.95
2023-02-25T15:44:13.478Z,18.96
2023-02-25T15:46:44.456Z,18.82
2023-02-25T15:49:35.922Z,18.55
2023-02-25T15:52:05.676Z,18.21
2023-02-25T15:54:38.392Z,17.95
2023-02-25T15:57:09.609Z,17.71
2023-02-25T15:59:44.024Z,17.52
2023-02-25T16:02:33.617Z,17.42
2023-02-25T16:05:09.322Z,17.34
2023-02-25T16:07:39.938Z,17.24
2023-02-25T16:10:19.949Z,17.14
2023-02-25T16:12:51.728Z,17.09
2023-02-25T16:15:26.812Z,17.03
2023-02-25T16:17:56.888Z,16.97
2023-02-25T16:20:30.419Z,16.94
2023-02-25T16:22:59.656Z,16.95
2023-02-25T16:25:42.459Z,17.00
2023-02-25T16:28:15.724Z,17.02
2023-02-25T16:31:33.218Z,17.00
2023-02-25T16:34:03.130Z,16.99
2023-02-25T16:36:39.900Z,16.96
2023-02-25T16:39:24.911Z,16.96
2023-02-25T16:41:53.047Z,16.97
2023-02-25T16:44:30.766Z,16.99
2023-02-25T16:46:59.478Z,16.97
2023-02-25T16:49:33.235Z,16.91
2023-02-25T16:52:01.702Z,16.80
2023-02-25T16:54:37.657Z,16.71
2023-02-25T16:57:07.336Z,16.62
2023-02-25T16:59:37.306Z,16.54
2023-02-25T17:02:16.250Z,16.49
2023-02-25T17:04:54.344Z,16.42
2023-02-25T17:07:25.950Z,16.30
2023-02-25T17:09:54.914Z,16.14
2023-02-25T17:12:38.864Z,16.06
2023-02-25T17:15:26.425Z,16.01
2023-02-25T17:18:19.149Z,15.92
2023-02-25T17:20:48.317Z,15.85
2023-02-25T17:23:16.943Z,15.85
2023-02-25T17:25:47.240Z,15.90
2023-02-25T17:28:26.057Z,15.85
2023-02-25T17:31:06.222Z,15.76
2023-02-25T17:33:34.896Z,15.63
2023-02-25T17:36:14.162Z,15.54
2023-02-25T17:38:43.773Z,15.53
2023-02-25T17:41:18.429Z,15.57
2023-02-25T17:43:46.801Z,15.60
2023-02-25T17:46:37.923Z,15.66
2023-02-25T17:49:26.570Z,15.73
2023-02-25T17:52:30.546Z,15.77
2023-02-25T17:57:42.130Z,14.50
2023-02-25T18:00:32.881Z,15.58
2023-02-25T18:03:20.712Z,15.72
2023-02-25T18:05:58.473Z,15.69
2023-02-25T18:08:52.611Z,15.68
2023-02-25T18:11:38.564Z,15.60
2023-02-25T18:14:25.556Z,15.51
2023-02-25T18:16:53.045Z,15.49
2023-02-25T18:19:36.427Z,15.44
2023-02-25T18:22:04.804Z,15.43
2023-02-25T18:24:33.878Z,15.46
2023-02-25T18:27:23.991Z,15.51
2023-02-25T18:29:50.886Z,15.56
2023-02-25T18:32:18.692Z,15.55
2023-02-25T18:34:45.797Z,15.54
2023-02-25T18:37:14.289Z,15.52
2023-02-25T18:39:41.335Z,15.52
2023-02-25T18:42:13.381Z,15.56
2023-02-25T18:44:40.402Z,15.64
2023-02-25T18:47:09.260Z,15.67
2023-02-25T18:49:36.164Z,15.69
2023-02-25T18:52:17.441Z,15.69
2023-02-25T18:54:48.722Z,15.62
2023-02-25T18:57:26.033Z,15.54
2023-02-25T18:59:53.184Z,15.49
2023-02-25T19:02:32.117Z,15.48
2023-02-25T19:05:00.059Z,15.49
2023-02-25T19:07:32.344Z,15.52
2023-02-25T19:10:00.306Z,15.58
2023-02-25T19:12:28.270Z,15.64
2023-02-25T19:15:07.512Z,15.68
2023-02-25T19:17:34.475Z,15.66
2023-02-25T19:20:01.820Z,15.69
2023-02-25T19:22:28.961Z,15.66
2023-02-25T19:24:55.912Z,15.63
2023-02-25T19:27:28.495Z,15.59
2023-02-25T19:29:58.819Z,15.59
2023-02-25T19:32:26.131Z,15.61
2023-02-25T19:34:53.425Z,15.61
2023-02-25T19:37:20.382Z,15.59
2023-02-25T19:39:47.371Z,15.56
2023-02-25T19:42:14.989Z,15.49
2023-02-25T19:44:42.131Z,15.45
2023-02-25T19:47:08.973Z,15.40
2023-02-25T19:49:35.925Z,15.35
2023-02-25T19:52:03.164Z,15.35
2023-02-25T19:54:34.224Z,15.33
2023-02-25T19:57:01.164Z,15.29
2023-02-25T19:59:29.432Z,15.21
2023-02-25T20:01:56.694Z,15.17
2023-02-25T20:04:24.254Z,15.15
2023-02-25T20:06:51.318Z,15.10
2023-02-25T20:09:18.889Z,15.09
2023-02-25T20:11:46.013Z,15.12
2023-02-25T20:14:14.595Z,15.14
2023-02-25T20:16:42.208Z,15.11
2023-02-25T20:19:13.208Z,15.07
2023-02-25T20:21:40.249Z,15.03
2023-02-25T20:24:07.733Z,15.01
2023-02-25T20:26:35.756Z,14.96
2023-02-25T20:29:02.667Z,14.89
2023-02-25T20:31:30.543Z,14.88
2023-02-25T20:33:58.875Z,14.89
2023-02-25T20:36:27.895Z,14.92
2023-02-25T20:39:28.715Z,14.90
2023-02-25T20:41:55.870Z,14.89
2023-02-25T20:44:22.856Z,14.88
2023-02-25T20:46:50.054Z,14.89
2023-02-25T20:49:17.937Z,14.90
2023-02-25T20:51:46.626Z,14.95
2023-02-25T20:54:15.724Z,15.02
2023-02-25T20:56:49.974Z,15.07
2023-02-25T20:59:17.678Z,15.08
2023-02-25T21:01:44.381Z,15.08
2023-02-25T21:04:12.098Z,15.10
2023-02-25T21:06:38.887Z,15.11
2023-02-25T21:09:08.001Z,15.11
2023-02-25T21:11:35.321Z,15.11
2023-02-25T21:14:02.257Z,15.10
2023-02-25T21:16:32.623Z,15.11
2023-02-25T21:19:00.491Z,15.14
2023-02-25T21:21:27.310Z,15.14
2023-02-25T21:23:54.014Z,15.12
2023-02-25T21:26:20.753Z,15.08
2023-02-25T21:28:48.505Z,15.03
2023-02-25T21:31:15.578Z,14.98
2023-02-25T21:33:42.527Z,14.93
2023-02-25T21:36:09.502Z,14.88
2023-02-25T21:38:36.546Z,14.83
2023-02-25T21:41:07.554Z,14.82
2023-02-25T21:43:34.808Z,14.84
2023-02-25T21:46:02.478Z,14.85
2023-02-25T21:48:29.705Z,14.84
2023-02-25T21:50:57.560Z,14.81
2023-02-25T21:53:27.680Z,14.77
2023-02-25T21:55:54.769Z,14.73
2023-02-25T21:58:22.231Z,14.70
2023-02-25T22:00:49.477Z,14.66
2023-02-25T22:03:17.491Z,14.62
2023-02-25T22:05:45.584Z,14.62
2023-02-25T22:08:13.657Z,14.68
2023-02-25T22:10:41.898Z,14.64
2023-02-25T22:13:08.643Z,14.57
2023-02-25T22:15:35.423Z,14.51
2023-02-25T22:18:03.205Z,14.48
2023-02-25T22:20:34.123Z,14.44
2023-02-25T22:23:01.187Z,14.40
2023-02-25T22:25:28.106Z,14.35
2023-02-25T22:27:55.070Z,14.30
2023-02-25T22:30:22.101Z,14.30
2023-02-25T22:32:49.660Z,14.32
2023-02-25T22:35:16.634Z,14.33
2023-02-25T22:37:43.332Z,14.30
2023-02-25T22:40:10.621Z,14.26
2023-02-25T22:42:37.520Z,14.21
2023-02-25T22:45:04.706Z,14.17
2023-02-25T22:47:31.620Z,14.12
2023-02-25T22:49:58.262Z,14.06
2023-02-25T22:52:25.213Z,14.01
2023-02-25T22:54:51.967Z,13.97
2023-02-25T22:57:18.599Z,13.98
2023-02-25T22:59:47.670Z,14.02
2023-02-25T23:02:14.460Z,14.01
2023-02-25T23:04:46.089Z,13.97
2023-02-25T23:07:13.041Z,13.92
2023-02-25T23:09:40.037Z,13.89
2023-02-25T23:12:10.005Z,13.85
2023-02-25T23:14:38.002Z,13.81
2023-02-25T23:17:04.682Z,13.75
2023-02-25T23:19:32.489Z,13.70
2023-02-25T23:22:00.346Z,13.70
2023-02-25T23:24:27.200Z,13.76
2023-02-25T23:26:54.094Z,13.76
2023-02-25T23:29:20.848Z,13.72
2023-02-25T23:31:48.379Z,13.67
2023-02-25T23:34:21.002Z,13.61
2023-02-25T23:36:49.186Z,13.55
2023-02-25T23:39:16.035Z,13.48
2023-02-25T23:41:43.048Z,13.43
2023-02-25T23:44:10.284Z,13.41
2023-02-25T23:46:37.151Z,13.40
2023-02-25T23:49:06.138Z,13.46
2023-02-25T23:51:35.536Z,13.51
2023-02-25T23:54:03.729Z,13.50
2023-02-25T23:56:30.668Z,13.47
2023-02-25T23:58:57.398Z,13.44
